Veles, Macedonia
Current Conditions -  °F | °C
As of 11:00 PM on Saturday 25 Oct 2014 (Local Time) from LWSK Reporting Station
Broken Clouds Broken Clouds  
Wind Chill: 37°   Ceiling: 4000
Heat Index: 43°   Visibility: 6mi
Dew Point: 30°   Wind: 9mph
Humidity: 61%   Direction: 340°NNW
Pressure: 30.18"   Gusts: NA
Location:  41.73°N, 21.78°E
Report Text: LWSK 252100Z 34008KT 9999 BKN040 06/M01 Q1022 NOSIG
Loading
Personal Weather Stations






























Interactive Weather Map
Tropical Storm Tracking
New forecast layout! Learn more

10-Day Weather Forecast

Advertisements
Track Severe Weather on mobile